Time;durP1;ratioP1;P1;durP2;ratioP2;P2;SDS_P1;SDS_P2;PMS_P1;PMS_P2;Temp;Humidity;BMP_temperature;BMP_pressure;BME280_temperature;BME280_humidity;BME280_pressure;Samples;Min_cycle;Max_cycle;Signal;HPM_P1;HPM_P2
2023/04/28 05:00:33;;;;;;;4.53;4.13;;;13.50;97.20;;;;;;1734267;28;20223;-64
2023/04/28 05:01:24;;;;;;;4.68;4.28;;;13.50;97.20;;;;;;1734218;28;20208;-64
2023/04/28 05:02:15;;;;;;;4.50;4.10;;;13.50;97.20;;;;;;1734204;28;20200;-63
2023/04/28 05:03:07;;;;;;;4.40;4.00;;;13.50;97.20;;;;;;1734387;28;20231;-64
2023/04/28 05:03:59;;;;;;;6.63;4.00;;;13.40;97.20;;;;;;1734193;28;20572;-65
2023/04/28 05:04:50;;;;;;;4.65;4.25;;;13.40;97.20;;;;;;1734295;28;20215;-65
2023/04/28 05:05:43;;;;;;;4.37;4.07;;;13.40;97.20;;;;;;1734193;28;20195;-64
2023/04/28 05:06:34;;;;;;;5.20;4.50;;;13.40;97.20;;;;;;1733921;28;20522;-64
2023/04/28 05:07:26;;;;;;;4.93;4.53;;;13.40;97.20;;;;;;1734220;28;20207;-64
2023/04/28 05:08:17;;;;;;;6.78;4.65;;;13.40;97.20;;;;;;1734150;28;20852;-64
2023/04/28 05:09:09;;;;;;;5.20;4.27;;;13.40;97.20;;;;;;1734206;28;20241;-66
2023/04/28 05:09:59;;;;;;;4.70;4.30;;;13.40;97.20;;;;;;1734136;28;20849;-64
2023/04/28 05:10:51;;;;;;;4.43;4.03;;;13.40;97.20;;;;;;1734134;28;20215;-64
2023/04/28 05:11:42;;;;;;;4.78;4.30;;;13.30;97.20;;;;;;1734091;28;20200;-66
2023/04/28 05:12:33;;;;;;;4.43;4.13;;;13.30;97.20;;;;;;1734237;28;20211;-65
2023/04/28 05:13:24;;;;;;;4.85;4.38;;;13.30;97.20;;;;;;1734075;28;20690;-65
2023/04/28 05:14:16;;;;;;;4.57;4.23;;;13.30;97.20;;;;;;1734162;28;20526;-65
2023/04/28 05:15:07;;;;;;;5.85;4.28;;;13.30;97.20;;;;;;1734178;28;20203;-64
2023/04/28 05:16:00;;;;;;;6.25;5.10;;;13.30;97.20;;;;;;1734136;28;20558;-66
2023/04/28 05:16:51;;;;;;;4.88;4.13;;;13.30;97.20;;;;;;1733756;28;20238;-64
2023/04/28 05:17:43;;;;;;;5.47;4.50;;;13.30;97.20;;;;;;1734177;28;20200;-66
2023/04/28 05:18:34;;;;;;;4.47;4.15;;;13.30;97.20;;;;;;1734229;28;20668;-63
2023/04/28 05:19:26;;;;;;;5.28;4.30;;;13.30;97.20;;;;;;1734208;28;20204;-64
2023/04/28 05:20:17;;;;;;;4.65;4.25;;;13.30;97.20;;;;;;1734025;28;20195;-65
2023/04/28 05:21:10;;;;;;;5.40;4.90;;;13.30;97.20;;;;;;1734273;28;20203;-64
2023/04/28 05:22:01;;;;;;;5.13;4.65;;;13.30;97.20;;;;;;1734110;28;20786;-65
2023/04/28 05:22:53;;;;;;;6.57;5.27;;;13.30;97.20;;;;;;1734208;28;20667;-64
2023/04/28 05:23:43;;;;;;;5.32;4.82;;;13.30;97.20;;;;;;1734076;28;20451;-64
2023/04/28 05:24:35;;;;;;;5.23;4.83;;;13.30;97.20;;;;;;1734154;28;20203;-65
2023/04/28 05:25:26;;;;;;;7.60;5.53;;;13.30;97.20;;;;;;1734114;28;20621;-65
2023/04/28 05:26:17;;;;;;;4.93;4.53;;;13.30;97.20;;;;;;1733822;28;20311;-65
2023/04/28 05:27:08;;;;;;;5.88;4.80;;;13.30;97.20;;;;;;1734087;28;20411;-64
2023/04/28 05:28:03;;;;;;;4.72;4.32;;;13.30;97.20;;;;;;1734115;28;20681;-65
2023/04/28 05:28:54;;;;;;;5.00;4.47;;;13.30;97.20;;;;;;1734130;28;20208;-65
2023/04/28 05:29:46;;;;;;;5.77;4.47;;;13.40;97.20;;;;;;1734214;28;20262;-64
2023/04/28 05:30:36;;;;;;;4.88;4.40;;;13.40;97.20;;;;;;1733517;28;20231;-64
2023/04/28 05:31:29;;;;;;;6.70;5.73;;;13.40;97.20;;;;;;1734103;28;20200;-64
2023/04/28 05:32:20;;;;;;;5.97;5.43;;;13.30;97.20;;;;;;1734129;28;20204;-63
2023/04/28 05:33:12;;;;;;;7.00;4.80;;;13.40;97.20;;;;;;1734110;28;20273;-64
2023/04/28 05:34:03;;;;;;;6.63;5.53;;;13.40;97.20;;;;;;1734030;28;20450;-63
2023/04/28 05:34:55;;;;;;;5.33;4.93;;;13.30;97.20;;;;;;1734200;28;20215;-64
2023/04/28 05:35:45;;;;;;;7.60;5.43;;;13.30;97.20;;;;;;1734181;28;20672;-63
2023/04/28 05:36:37;;;;;;;8.70;6.27;;;13.30;97.20;;;;;;1733776;28;20706;-63
2023/04/28 05:37:28;;;;;;;6.35;5.85;;;13.30;97.20;;;;;;1734030;28;20469;-63
2023/04/28 05:38:20;;;;;;;6.20;5.60;;;13.30;97.20;;;;;;1734233;28;20199;-64
2023/04/28 05:39:11;;;;;;;5.60;5.10;;;13.30;97.20;;;;;;1734167;28;20211;-66
2023/04/28 05:40:03;;;;;;;6.10;5.50;;;13.40;97.20;;;;;;1734186;28;20202;-63
2023/04/28 05:40:53;;;;;;;5.80;5.30;;;13.40;97.20;;;;;;1734038;28;20231;-64
2023/04/28 05:41:45;;;;;;;5.40;4.87;;;13.40;97.20;;;;;;1734055;28;20199;-64
2023/04/28 05:42:36;;;;;;;5.40;4.90;;;13.40;97.20;;;;;;1733987;28;20203;-64
2023/04/28 05:43:28;;;;;;;5.53;5.03;;;13.40;97.20;;;;;;1734082;28;20278;-65
2023/04/28 05:44:19;;;;;;;7.05;4.90;;;13.40;97.20;;;;;;1733959;28;20909;-63
2023/04/28 05:45:11;;;;;;;5.80;4.70;;;13.40;97.20;;;;;;1734210;28;20330;-63
2023/04/28 05:46:02;;;;;;;5.10;4.60;;;13.40;97.20;;;;;;1733892;28;20211;-64
2023/04/28 05:46:55;;;;;;;5.38;4.93;;;13.40;97.20;;;;;;1733777;28;20200;-65
2023/04/28 05:47:46;;;;;;;6.45;4.70;;;13.40;97.20;;;;;;1734032;28;20204;-64
2023/04/28 05:48:38;;;;;;;5.70;4.50;;;13.40;97.20;;;;;;1734037;28;20195;-65
2023/04/28 05:49:29;;;;;;;4.80;4.47;;;13.40;97.20;;;;;;1733959;28;20237;-64
2023/04/28 05:50:20;;;;;;;5.27;4.80;;;13.40;97.20;;;;;;1734044;28;20192;-65
2023/04/28 05:51:11;;;;;;;4.32;4.03;;;13.40;97.20;;;;;;1734033;28;20206;-65
2023/04/28 05:52:03;;;;;;;6.53;5.03;;;13.40;97.20;;;;;;1733988;28;20203;-64
2023/04/28 05:52:54;;;;;;;5.38;4.88;;;13.40;97.20;;;;;;1734044;28;20210;-64
2023/04/28 05:53:47;;;;;;;5.27;4.80;;;13.40;97.20;;;;;;1734049;28;20208;-63
2023/04/28 05:54:38;;;;;;;4.82;4.43;;;13.40;97.20;;;;;;1734050;28;20199;-64
2023/04/28 05:55:30;;;;;;;4.67;4.37;;;13.40;97.20;;;;;;1734098;28;20257;-64
2023/04/28 05:56:21;;;;;;;5.00;4.60;;;13.40;97.20;;;;;;1733734;28;20682;-63
2023/04/28 05:57:12;;;;;;;5.20;4.80;;;13.40;97.20;;;;;;1734062;28;20617;-66
2023/04/28 05:58:03;;;;;;;4.57;4.18;;;13.40;97.20;;;;;;1734091;28;20383;-65
2023/04/28 05:58:55;;;;;;;4.73;4.30;;;13.40;97.20;;;;;;1735422;28;20207;-66
2023/04/28 05:59:46;;;;;;;4.70;4.30;;;13.40;97.20;;;;;;1735468;28;20582;-66
2023/04/28 06:00:38;;;;;;;4.90;4.50;;;13.40;97.20;;;;;;1735330;28;20565;-66
2023/04/28 06:01:28;;;;;;;4.50;4.18;;;13.40;97.20;;;;;;1735442;28;20206;-66
2023/04/28 06:02:22;;;;;;;4.60;4.20;;;13.40;97.20;;;;;;1735548;28;20198;-65
2023/04/28 06:03:14;;;;;;;4.80;4.30;;;13.40;97.20;;;;;;1735534;28;20442;-66
2023/04/28 06:04:06;;;;;;;4.78;4.35;;;13.40;97.20;;;;;;1735519;28;20303;-65
2023/04/28 06:04:56;;;;;;;4.72;4.30;;;13.40;97.20;;;;;;1735417;28;20203;-66
2023/04/28 06:05:48;;;;;;;4.77;4.30;;;13.40;97.20;;;;;;1735482;28;20200;-66
2023/04/28 06:06:39;;;;;;;5.68;4.60;;;13.40;97.20;;;;;;1735141;28;20203;-66
2023/04/28 06:07:31;;;;;;;6.43;4.87;;;13.40;97.20;;;;;;1735407;28;20199;-67
2023/04/28 06:08:22;;;;;;;4.88;4.47;;;13.40;97.20;;;;;;1735423;28;20791;-66
2023/04/28 06:09:13;;;;;;;4.47;4.07;;;13.40;97.20;;;;;;1735529;28;20206;-67
2023/04/28 06:10:05;;;;;;;4.90;4.40;;;13.40;97.20;;;;;;1735477;28;20474;-66
2023/04/28 06:10:57;;;;;;;4.70;4.30;;;13.40;97.20;;;;;;1735382;28;20386;-68
2023/04/28 06:11:47;;;;;;;6.88;4.20;;;13.40;97.20;;;;;;1735389;28;20620;-66
2023/04/28 06:12:39;;;;;;;5.13;4.43;;;13.40;97.20;;;;;;1735429;28;20196;-67
2023/04/28 06:13:30;;;;;;;4.38;4.07;;;13.40;97.20;;;;;;1735291;28;20255;-67
2023/04/28 06:14:22;;;;;;;5.33;4.70;;;13.50;97.20;;;;;;1735353;28;20203;-66
2023/04/28 06:15:13;;;;;;;5.97;4.80;;;13.40;97.20;;;;;;1735384;28;20210;-66
2023/04/28 06:16:06;;;;;;;5.43;4.40;;;13.50;97.20;;;;;;1735483;28;20210;-67
2023/04/28 06:16:57;;;;;;;5.90;4.70;;;13.50;97.20;;;;;;1735102;28;20245;-65
2023/04/28 06:17:50;;;;;;;4.80;4.33;;;13.50;97.20;;;;;;1735543;28;20325;-65
2023/04/28 06:18:40;;;;;;;4.90;4.50;;;13.50;97.20;;;;;;1735292;28;20199;-66
2023/04/28 06:19:32;;;;;;;4.77;4.37;;;13.50;97.20;;;;;;1735442;28;20199;-65
2023/04/28 06:20:23;;;;;;;5.30;4.80;;;13.50;97.20;;;;;;1735278;28;20577;-66
2023/04/28 06:21:16;;;;;;;5.27;4.80;;;13.60;97.20;;;;;;1735419;28;20196;-66
2023/04/28 06:22:06;;;;;;;5.18;4.38;;;13.60;97.20;;;;;;1735455;28;20227;-66
2023/04/28 06:22:58;;;;;;;4.67;4.27;;;13.60;97.20;;;;;;1735439;28;20207;-66
2023/04/28 06:23:49;;;;;;;5.45;4.85;;;13.60;97.20;;;;;;1735309;28;20207;-65
2023/04/28 06:24:41;;;;;;;5.30;4.87;;;13.70;97.20;;;;;;1735345;28;20199;-65
2023/04/28 06:25:32;;;;;;;4.20;3.90;;;13.70;97.20;;;;;;1735439;28;20204;-66
2023/04/28 06:26:24;;;;;;;5.40;4.90;;;13.70;97.20;;;;;;1735007;28;20230;-67
2023/04/28 06:27:15;;;;;;;4.75;4.13;;;13.70;97.20;;;;;;1735242;28;20234;-65
2023/04/28 06:28:07;;;;;;;4.60;4.13;;;13.70;97.20;;;;;;1735365;28;20208;-66
2023/04/28 06:28:57;;;;;;;4.63;4.22;;;13.70;97.20;;;;;;1735292;28;20223;-66
2023/04/28 06:29:50;;;;;;;4.90;4.40;;;13.70;97.20;;;;;;1735278;28;20206;-67
2023/04/28 06:30:40;;;;;;;4.97;4.28;;;13.80;97.20;;;;;;1734757;28;20232;-67
2023/04/28 06:31:32;;;;;;;4.27;3.87;;;13.80;97.20;;;;;;1735282;28;20265;-66
2023/04/28 06:32:23;;;;;;;4.72;3.92;;;13.80;97.20;;;;;;1735278;28;20239;-66
2023/04/28 06:33:16;;;;;;;4.70;4.30;;;13.80;97.20;;;;;;1735272;28;20203;-66
2023/04/28 06:34:07;;;;;;;5.22;4.72;;;13.80;97.20;;;;;;1735265;28;20482;-67
2023/04/28 06:34:58;;;;;;;4.93;4.23;;;13.80;97.20;;;;;;1735329;28;20208;-66
2023/04/28 06:35:49;;;;;;;4.72;4.32;;;13.90;97.20;;;;;;1735191;28;20214;-65
2023/04/28 06:36:41;;;;;;;4.90;3.93;;;13.90;97.20;;;;;;1734872;28;20206;-66
2023/04/28 06:37:32;;;;;;;5.22;4.45;;;13.90;97.20;;;;;;1735185;28;20465;-67
2023/04/28 06:38:24;;;;;;;5.40;4.20;;;13.90;97.20;;;;;;1735239;28;20283;-67
2023/04/28 06:39:15;;;;;;;5.53;4.10;;;13.90;97.20;;;;;;1735252;28;20207;-65
2023/04/28 06:40:08;;;;;;;5.50;4.57;;;13.90;97.20;;;;;;1735227;28;20196;-65
2023/04/28 06:40:58;;;;;;;3.72;3.53;;;13.90;97.20;;;;;;1735176;28;20263;-66
2023/04/28 06:41:50;;;;;;;4.27;3.93;;;14.00;97.20;;;;;;1735223;28;20211;-66
2023/04/28 06:42:41;;;;;;;4.20;3.80;;;13.90;97.20;;;;;;1735190;28;20208;-68
2023/04/28 06:43:32;;;;;;;4.20;3.80;;;14.00;97.20;;;;;;1735155;28;20200;-66
2023/04/28 06:44:23;;;;;;;4.70;3.80;;;13.90;97.20;;;;;;1735145;28;20204;-66
2023/04/28 06:45:15;;;;;;;4.47;4.13;;;14.00;97.20;;;;;;1735317;28;20279;-66
2023/04/28 06:46:06;;;;;;;4.20;3.80;;;14.00;97.20;;;;;;1735174;28;20207;-66
2023/04/28 06:46:57;;;;;;;4.00;3.60;;;14.00;97.20;;;;;;1734889;28;20229;-65
2023/04/28 06:47:48;;;;;;;4.50;4.10;;;14.00;97.20;;;;;;1735296;28;20453;-65
2023/04/28 06:48:41;;;;;;;4.37;3.97;;;14.00;97.20;;;;;;1735203;28;20199;-67
2023/04/28 06:49:32;;;;;;;4.38;3.97;;;14.00;97.20;;;;;;1735173;28;20203;-65
2023/04/28 06:50:24;;;;;;;4.33;3.93;;;14.00;97.20;;;;;;1735073;28;20204;-65
2023/04/28 06:51:15;;;;;;;4.88;4.05;;;14.00;97.20;;;;;;1735168;28;20219;-66
2023/04/28 06:52:07;;;;;;;5.10;4.60;;;14.00;97.20;;;;;;1735142;28;20226;-64
2023/04/28 06:52:58;;;;;;;4.50;4.10;;;14.10;97.20;;;;;;1735171;28;20204;-66
2023/04/28 06:53:52;;;;;;;5.70;4.53;;;14.10;97.20;;;;;;1735105;28;20216;-65
2023/04/28 06:54:42;;;;;;;4.38;3.97;;;14.10;97.20;;;;;;1735145;28;20257;-65
2023/04/28 06:55:34;;;;;;;4.97;4.57;;;14.10;97.20;;;;;;1735198;28;20250;-67
2023/04/28 06:56:25;;;;;;;4.88;4.00;;;14.10;97.20;;;;;;1734755;28;20237;-68
2023/04/28 06:57:17;;;;;;;6.00;5.43;;;14.10;97.20;;;;;;1735116;28;20238;-65
2023/04/28 06:58:08;;;;;;;4.82;4.43;;;14.00;97.20;;;;;;1735083;28;20200;-66
2023/04/28 06:59:00;;;;;;;5.43;4.30;;;14.00;97.20;;;;;;1735026;28;20291;-66
2023/04/28 06:59:50;;;;;;;5.07;4.63;;;14.00;97.20;;;;;;1735135;28;20792;-65
2023/04/28 07:00:42;;;;;;;4.80;4.30;;;14.00;97.20;;;;;;1735108;28;20294;-67
2023/04/28 07:01:33;;;;;;;4.55;4.15;;;14.00;97.20;;;;;;1735089;28;20215;-66
2023/04/28 07:02:25;;;;;;;4.87;4.37;;;14.00;97.20;;;;;;1735152;28;20258;-66
2023/04/28 07:03:15;;;;;;;4.80;4.40;;;14.00;97.20;;;;;;1735101;28;20203;-67
2023/04/28 07:04:09;;;;;;;5.13;4.60;;;14.00;97.20;;;;;;1735086;28;20200;-66
2023/04/28 07:04:59;;;;;;;4.20;3.90;;;14.00;97.20;;;;;;1735060;28;20460;-66
2023/04/28 07:05:51;;;;;;;5.13;4.40;;;14.00;97.20;;;;;;1735108;28;20279;-66
2023/04/28 07:06:42;;;;;;;5.00;4.50;;;14.10;97.20;;;;;;1734731;28;20804;-67
2023/04/28 07:07:33;;;;;;;4.20;3.80;;;14.10;97.20;;;;;;1735012;28;20224;-65
2023/04/28 07:08:24;;;;;;;4.85;4.50;;;14.10;97.20;;;;;;1735102;28;20204;-66
2023/04/28 07:09:16;;;;;;;5.05;4.20;;;14.10;97.20;;;;;;1734846;28;20196;-66
2023/04/28 07:10:08;;;;;;;3.85;3.55;;;14.10;97.20;;;;;;1735022;28;20211;-66
2023/04/28 07:11:03;;;;;;;5.40;4.38;;;14.10;97.20;;;;;;1734982;28;20703;-66
2023/04/28 07:11:53;;;;;;;4.85;4.07;;;14.10;97.20;;;;;;1735071;28;20248;-67
2023/04/28 07:12:45;;;;;;;4.20;3.90;;;14.10;97.20;;;;;;1735053;28;20208;-66
2023/04/28 07:13:36;;;;;;;4.88;4.20;;;14.10;97.20;;;;;;1734912;28;20687;-67
2023/04/28 07:14:27;;;;;;;4.30;3.90;;;14.20;97.20;;;;;;1735021;28;20545;-66
2023/04/28 07:15:18;;;;;;;3.65;3.35;;;14.20;97.20;;;;;;1735077;28;20207;-66
2023/04/28 07:16:10;;;;;;;8.03;4.80;;;14.10;97.20;;;;;;1735002;28;20202;-65
2023/04/28 07:17:01;;;;;;;4.82;4.28;;;14.20;97.20;;;;;;1734595;28;20261;-66
2023/04/28 07:17:53;;;;;;;4.80;4.35;;;14.20;97.20;;;;;;1734967;28;20196;-67
2023/04/28 07:18:44;;;;;;;4.00;3.65;;;14.20;97.20;;;;;;1734979;28;20699;-67
2023/04/28 07:19:37;;;;;;;5.03;4.63;;;14.20;97.20;;;;;;1734980;28;20555;-66
2023/04/28 07:20:28;;;;;;;5.65;4.40;;;14.20;97.20;;;;;;1734846;28;20227;-67
2023/04/28 07:21:20;;;;;;;4.17;3.80;;;14.20;97.20;;;;;;1734980;28;20275;-65
2023/04/28 07:22:11;;;;;;;5.10;4.60;;;14.20;97.20;;;;;;1735022;28;20261;-65
2023/04/28 07:23:03;;;;;;;4.63;4.23;;;14.20;97.20;;;;;;1735022;28;20250;-65
2023/04/28 07:23:55;;;;;;;4.15;3.85;;;14.30;97.20;;;;;;1734918;28;20294;-65
2023/04/28 07:24:47;;;;;;;4.47;4.07;;;14.20;97.20;;;;;;1734997;28;20196;-68
2023/04/28 07:25:39;;;;;;;4.15;3.80;;;14.20;97.20;;;;;;1734887;28;20204;-64
2023/04/28 07:26:33;;;;;;;5.05;4.18;;;14.30;97.20;;;;;;1734624;28;20752;-64
2023/04/28 07:27:23;;;;;;;4.28;3.88;;;14.30;97.20;;;;;;1734775;28;20199;-63
2023/04/28 07:28:15;;;;;;;5.17;3.97;;;14.30;97.20;;;;;;1734862;28;20204;-66
2023/04/28 07:29:07;;;;;;;4.03;3.60;;;14.40;97.20;;;;;;1734842;28;20566;-64
2023/04/28 07:29:59;;;;;;;3.65;3.40;;;14.40;97.20;;;;;;1734875;28;20200;-64
2023/04/28 07:30:50;;;;;;;4.65;4.22;;;14.40;97.20;;;;;;1734358;28;20730;-64
2023/04/28 07:31:41;;;;;;;5.17;4.00;;;14.40;97.20;;;;;;1734890;28;20712;-64
2023/04/28 07:32:32;;;;;;;4.43;3.70;;;14.40;97.20;;;;;;1734885;28;20208;-62
2023/04/28 07:33:24;;;;;;;4.00;3.70;;;14.40;97.20;;;;;;1734809;28;20206;-64
2023/04/28 07:34:15;;;;;;;4.63;4.15;;;14.40;97.20;;;;;;1734673;28;20219;-64
2023/04/28 07:35:08;;;;;;;3.77;3.37;;;14.40;97.20;;;;;;1734826;28;20227;-63
2023/04/28 07:35:59;;;;;;;3.88;3.58;;;14.40;97.20;;;;;;1734766;28;20443;-64
2023/04/28 07:36:51;;;;;;;4.40;4.00;;;14.40;97.20;;;;;;1734502;28;20192;-64
2023/04/28 07:37:42;;;;;;;4.78;3.75;;;14.40;97.20;;;;;;1734860;28;20446;-66
2023/04/28 07:38:34;;;;;;;5.90;5.30;;;14.40;97.20;;;;;;1734932;28;20258;-67
2023/04/28 07:39:25;;;;;;;6.30;5.70;;;14.40;97.20;;;;;;1734884;28;20496;-68
2023/04/28 07:40:17;;;;;;;6.77;6.17;;;14.40;97.20;;;;;;1734782;28;20192;-66
2023/04/28 07:41:08;;;;;;;5.03;4.63;;;14.40;97.20;;;;;;1734793;28;20211;-66
2023/04/28 07:41:59;;;;;;;5.80;5.20;;;14.40;97.20;;;;;;1734826;28;20302;-63
2023/04/28 07:42:50;;;;;;;5.20;4.80;;;14.40;97.20;;;;;;1734750;28;20204;-64
2023/04/28 07:43:42;;;;;;;5.47;4.35;;;14.40;97.20;;;;;;1734773;28;20279;-64
2023/04/28 07:44:33;;;;;;;5.32;3.92;;;14.40;97.20;;;;;;1734784;28;20211;-64
2023/04/28 07:45:26;;;;;;;6.50;4.10;;;14.40;97.20;;;;;;1734850;28;20204;-64
2023/04/28 07:46:16;;;;;;;4.53;4.22;;;14.40;97.20;;;;;;1734425;28;20454;-64
2023/04/28 07:47:08;;;;;;;3.93;3.63;;;14.40;97.20;;;;;;1734662;28;20204;-64
2023/04/28 07:48:00;;;;;;;5.75;3.97;;;14.40;97.20;;;;;;1734786;28;20200;-65
2023/04/28 07:48:53;;;;;;;4.28;3.95;;;14.50;97.20;;;;;;1734771;28;20203;-66
2023/04/28 07:49:44;;;;;;;4.30;3.90;;;14.50;97.20;;;;;;1734734;28;20319;-64
2023/04/28 07:50:36;;;;;;;4.00;3.70;;;14.40;97.20;;;;;;1734679;28;20226;-64
2023/04/28 07:51:28;;;;;;;4.07;3.78;;;14.40;97.20;;;;;;1734798;28;20223;-65
2023/04/28 07:52:19;;;;;;;4.15;3.75;;;14.40;97.20;;;;;;1734695;28;20206;-64
2023/04/28 07:53:10;;;;;;;5.00;3.67;;;14.40;97.20;;;;;;1734752;28;20202;-63
2023/04/28 07:54:01;;;;;;;4.57;4.15;;;14.50;97.20;;;;;;1734605;28;20666;-65
2023/04/28 07:54:53;;;;;;;5.50;3.83;;;14.50;97.20;;;;;;1734789;28;20564;-63
2023/04/28 07:55:44;;;;;;;4.10;3.70;;;14.50;97.20;;;;;;1734625;28;20235;-64
2023/04/28 07:56:36;;;;;;;4.80;4.30;;;14.50;97.20;;;;;;1734384;28;20200;-64
2023/04/28 07:57:28;;;;;;;3.83;3.50;;;14.50;97.20;;;;;;1734658;28;20200;-63
2023/04/28 07:58:19;;;;;;;4.20;3.90;;;14.50;97.20;;;;;;1734704;28;20204;-64
2023/04/28 07:59:10;;;;;;;5.10;3.88;;;14.50;97.20;;;;;;1734702;28;20664;-65
2023/04/28 08:00:02;;;;;;;4.97;3.20;;;14.60;97.20;;;;;;1734677;28;20652;-63
2023/04/28 08:00:52;;;;;;;4.10;3.70;;;14.60;97.20;;;;;;1734604;28;20231;-64
2023/04/28 08:01:44;;;;;;;4.53;4.00;;;14.60;97.20;;;;;;1734648;28;20199;-65
2023/04/28 08:02:35;;;;;;;3.88;3.58;;;14.60;97.20;;;;;;1734512;28;20266;-63
2023/04/28 08:03:27;;;;;;;4.23;3.83;;;14.60;97.20;;;;;;1734652;28;20195;-65
2023/04/28 08:04:17;;;;;;;4.78;4.38;;;14.50;97.20;;;;;;1734582;28;20235;-65
2023/04/28 08:05:10;;;;;;;4.67;4.30;;;14.50;97.20;;;;;;1734629;28;20204;-65
2023/04/28 08:06:02;;;;;;;5.00;3.90;;;14.50;97.20;;;;;;1734661;28;20243;-64
2023/04/28 08:06:54;;;;;;;4.10;3.67;;;14.50;97.20;;;;;;1734265;28;20200;-64
2023/04/28 08:07:45;;;;;;;5.15;4.55;;;14.50;97.20;;;;;;1734631;28;20204;-64
2023/04/28 08:08:36;;;;;;;4.80;4.30;;;14.40;97.20;;;;;;1734672;28;20206;-64
2023/04/28 08:09:27;;;;;;;5.90;4.22;;;14.40;97.20;;;;;;1734665;28;20451;-64
2023/04/28 08:10:20;;;;;;;5.27;4.30;;;14.40;97.20;;;;;;1734577;28;20200;-64
2023/04/28 08:11:11;;;;;;;7.10;4.00;;;14.40;97.20;;;;;;1734654;28;20207;-64
2023/04/28 08:12:03;;;;;;;5.03;4.53;;;14.40;97.20;;;;;;1734613;28;20210;-65
2023/04/28 08:12:53;;;;;;;5.18;4.32;;;14.30;97.20;;;;;;1734598;28;20579;-64
2023/04/28 08:13:45;;;;;;;5.80;4.50;;;14.30;97.20;;;;;;1734591;28;20247;-63
2023/04/28 08:14:36;;;;;;;5.40;4.90;;;14.30;97.20;;;;;;1734465;28;20223;-65
2023/04/28 08:15:28;;;;;;;5.87;4.67;;;14.30;97.20;;;;;;1734729;28;20294;-64
2023/04/28 08:16:19;;;;;;;7.85;5.13;;;14.30;97.20;;;;;;1734159;28;20470;-64
2023/04/28 08:17:10;;;;;;;5.03;4.43;;;14.30;97.20;;;;;;1734653;28;20200;-66
2023/04/28 08:18:02;;;;;;;4.80;4.40;;;14.40;97.20;;;;;;1734520;28;20246;-66
2023/04/28 08:18:53;;;;;;;4.97;4.50;;;14.40;97.20;;;;;;1734628;28;20200;-66
2023/04/28 08:19:45;;;;;;;4.50;4.10;;;14.40;97.20;;;;;;1734525;28;20222;-67
2023/04/28 08:20:36;;;;;;;5.85;4.70;;;14.40;97.20;;;;;;1734538;28;20222;-66
2023/04/28 08:21:29;;;;;;;4.90;4.40;;;14.40;97.20;;;;;;1734048;28;20606;-66
2023/04/28 08:22:20;;;;;;;5.13;4.63;;;14.40;97.20;;;;;;1734575;28;20659;-65
2023/04/28 08:23:11;;;;;;;6.78;4.70;;;14.40;97.20;;;;;;1734561;28;20207;-66
2023/04/28 08:24:03;;;;;;;4.63;4.17;;;14.40;97.20;;;;;;1734560;28;20218;-65
2023/04/28 08:24:54;;;;;;;4.95;4.55;;;14.40;97.20;;;;;;1734648;28;20262;-65
2023/04/28 08:25:45;;;;;;;5.13;4.63;;;14.50;97.20;;;;;;1734588;28;20199;-66
2023/04/28 08:26:36;;;;;;;5.07;4.68;;;14.50;97.20;;;;;;1734227;28;20287;-67
2023/04/28 08:27:28;;;;;;;5.35;4.85;;;14.50;97.20;;;;;;1734481;28;20199;-66
2023/04/28 08:28:19;;;;;;;5.78;5.15;;;14.50;97.20;;;;;;1734467;28;20203;-66
2023/04/28 08:29:11;;;;;;;5.73;4.57;;;14.50;97.20;;;;;;1734614;28;20202;-66
2023/04/28 08:30:01;;;;;;;8.20;4.97;;;14.50;97.20;;;;;;1734542;28;20211;-65
2023/04/28 08:30:54;;;;;;;5.77;5.27;;;14.50;97.20;;;;;;1733995;28;20227;-67
2023/04/28 08:31:45;;;;;;;5.85;5.15;;;14.50;97.20;;;;;;1734553;28;20455;-65
2023/04/28 08:32:36;;;;;;;5.80;5.30;;;14.50;97.20;;;;;;1734517;28;20200;-65
2023/04/28 08:33:27;;;;;;;5.80;5.30;;;14.50;97.20;;;;;;1734522;28;20231;-65
2023/04/28 08:34:19;;;;;;;5.73;5.17;;;14.50;97.20;;;;;;1734472;28;20210;-65
2023/04/28 08:35:10;;;;;;;7.50;5.40;;;14.50;97.20;;;;;;1734516;28;20614;-66
2023/04/28 08:36:02;;;;;;;5.40;4.90;;;14.50;97.20;;;;;;1734451;28;20196;-66
2023/04/28 08:36:54;;;;;;;6.15;5.55;;;14.50;97.20;;;;;;1734103;28;20572;-65
2023/04/28 08:37:48;;;;;;;6.50;5.20;;;14.50;97.20;;;;;;1734565;28;20573;-65
2023/04/28 08:38:39;;;;;;;8.32;5.72;;;14.50;97.20;;;;;;1734518;28;20583;-67
2023/04/28 08:39:32;;;;;;;5.60;5.20;;;14.50;97.20;;;;;;1734545;28;20290;-66
2023/04/28 08:40:25;;;;;;;6.28;5.68;;;14.60;97.20;;;;;;1734373;28;20451;-65
2023/04/28 08:41:18;;;;;;;6.13;5.72;;;14.60;97.20;;;;;;1734499;28;20659;-66
2023/04/28 08:42:09;;;;;;;5.35;4.95;;;14.60;97.20;;;;;;1734490;28;20246;-67
2023/04/28 08:43:00;;;;;;;5.50;5.00;;;14.70;97.20;;;;;;1734432;28;20655;-65
2023/04/28 08:43:51;;;;;;;5.78;5.28;;;14.70;97.20;;;;;;1734487;28;20239;-65
2023/04/28 08:44:43;;;;;;;5.40;5.00;;;14.80;97.20;;;;;;1734453;28;20206;-65
2023/04/28 08:45:40;;;;;;;6.22;5.50;;;14.80;97.20;;;;;;1734492;28;20203;-65
2023/04/28 08:46:33;;;;;;;6.10;5.50;;;14.80;97.20;;;;;;1734187;28;20199;-66
2023/04/28 08:47:32;;;;;;;6.50;5.90;;;14.80;97.20;;;;;;1734346;28;20207;-65
2023/04/28 08:48:25;;;;;;;6.85;5.90;;;14.90;97.20;;;;;;1734448;28;20200;-65
2023/04/28 08:49:17;;;;;;;5.75;5.25;;;14.90;97.20;;;;;;1734368;28;20207;-65
2023/04/28 08:50:11;;;;;;;5.60;5.10;;;14.90;97.20;;;;;;1734400;28;20722;-63
2023/04/28 08:51:04;;;;;;;5.93;5.40;;;15.00;97.20;;;;;;1734357;28;20200;-63
2023/04/28 08:52:00;;;;;;;6.32;5.72;;;15.00;97.20;;;;;;1734380;28;20214;-64
2023/04/28 08:52:52;;;;;;;7.30;6.47;;;15.00;97.20;;;;;;1734467;28;20558;-65
2023/04/28 08:53:49;;;;;;;5.75;5.25;;;15.00;97.20;;;;;;1734341;28;20202;-63
2023/04/28 08:54:40;;;;;;;5.68;5.18;;;15.00;97.20;;;;;;1734296;28;20263;-62
2023/04/28 08:55:33;;;;;;;6.00;5.50;;;15.00;97.20;;;;;;1734410;28;20290;-63
2023/04/28 08:56:26;;;;;;;6.25;5.75;;;15.10;97.20;;;;;;1733948;28;20203;-64
2023/04/28 08:57:20;;;;;;;5.78;5.28;;;15.10;97.20;;;;;;1734308;28;20609;-63
2023/04/28 08:58:11;;;;;;;6.10;5.30;;;15.10;97.20;;;;;;1734327;28;20200;-63
2023/04/28 08:59:04;;;;;;;5.70;5.20;;;15.10;97.20;;;;;;1734342;28;20196;-63
2023/04/28 08:59:55;;;;;;;6.05;5.38;;;15.10;97.20;;;;;;1734412;28;20208;-63
2023/04/28 09:00:47;;;;;;;6.15;5.30;;;15.10;97.20;;;;;;1734340;28;20223;-63
2023/04/28 09:01:38;;;;;;;5.68;5.10;;;15.20;97.20;;;;;;1734309;28;20203;-64
2023/04/28 09:02:30;;;;;;;7.35;5.70;;;15.20;97.20;;;;;;1734337;28;20254;-62
2023/04/28 09:03:20;;;;;;;6.22;5.60;;;15.20;97.20;;;;;;1734334;28;20690;-63
2023/04/28 09:04:12;;;;;;;5.90;5.40;;;15.20;97.20;;;;;;1734466;28;20614;-62
2023/04/28 09:05:05;;;;;;;5.00;4.60;;;15.20;97.20;;;;;;1734394;28;20195;-63
2023/04/28 09:05:57;;;;;;;5.60;5.05;;;15.30;97.20;;;;;;1734224;28;20239;-63
2023/04/28 09:06:48;;;;;;;5.75;5.25;;;15.30;97.20;;;;;;1733926;28;20231;-64
2023/04/28 09:07:45;;;;;;;5.80;5.20;;;15.30;97.20;;;;;;1734304;28;20199;-62
2023/04/28 09:08:36;;;;;;;5.93;5.20;;;15.30;97.20;;;;;;1734331;28;20207;-64
2023/04/28 09:09:29;;;;;;;6.00;5.13;;;15.30;97.20;;;;;;1734302;28;20203;-63
2023/04/28 09:10:21;;;;;;;5.40;4.90;;;15.40;97.20;;;;;;1734192;28;20199;-66
2023/04/28 09:11:13;;;;;;;5.72;5.13;;;15.40;97.20;;;;;;1734224;28;20303;-65
2023/04/28 09:12:04;;;;;;;6.35;5.00;;;15.40;97.20;;;;;;1734278;28;20564;-64
2023/04/28 09:12:57;;;;;;;6.07;5.47;;;15.50;97.20;;;;;;1734270;28;20587;-64
2023/04/28 09:13:48;;;;;;;7.18;5.07;;;15.40;97.20;;;;;;1734251;28;20891;-65
2023/04/28 09:14:39;;;;;;;5.97;5.40;;;15.50;97.20;;;;;;1734122;28;20222;-63
2023/04/28 09:15:33;;;;;;;6.03;5.43;;;15.50;97.20;;;;;;1734303;28;20628;-64
2023/04/28 09:16:40;;;;;;;5.65;5.05;;;15.50;97.20;;;;;;1733888;28;20206;-64
2023/04/28 09:17:30;;;;;;;5.00;4.50;;;15.50;97.20;;;;;;1734306;28;20210;-65
2023/04/28 09:18:22;;;;;;;5.97;4.47;;;15.50;97.20;;;;;;1734229;28;20287;-63
2023/04/28 09:19:14;;;;;;;5.78;5.13;;;15.50;97.20;;;;;;1734209;28;20215;-64
2023/04/28 09:20:20;;;;;;;5.20;4.80;;;15.60;97.20;;;;;;1734167;28;20204;-64
2023/04/28 09:21:12;;;;;;;5.50;5.07;;;15.60;97.20;;;;;;1734205;28;20204;-65
2023/04/28 09:22:04;;;;;;;5.28;4.88;;;15.60;97.20;;;;;;1734171;28;20200;-65
2023/04/28 09:23:12;;;;;;;8.00;5.18;;;15.60;97.20;;;;;;1734195;28;20208;-65
2023/04/28 09:24:05;;;;;;;4.70;4.30;;;15.60;97.20;;;;;;1734204;28;20200;-64
2023/04/28 09:24:55;;;;;;;5.00;4.60;;;15.60;97.20;;;;;;1734197;28;20200;-64
2023/04/28 09:26:01;;;;;;;5.33;4.83;;;15.60;97.20;;;;;;1734111;28;20199;-65
2023/04/28 09:26:52;;;;;;;5.13;4.72;;;15.60;97.20;;;;;;1733782;28;20208;-65
2023/04/28 09:27:43;;;;;;;5.10;4.70;;;15.60;97.20;;;;;;1734105;28;20261;-63
2023/04/28 09:28:35;;;;;;;5.18;4.55;;;15.70;97.20;;;;;;1734185;28;20242;-65
2023/04/28 09:29:27;;;;;;;5.00;4.60;;;15.70;97.20;;;;;;1734116;28;20683;-64
2023/04/28 09:30:19;;;;;;;4.85;4.45;;;15.70;97.20;;;;;;1733937;28;20224;-63